OOCL Taipei — VRNR6 — position and weather

sailwx.info

Track history (hours):
 
Tides and Currents Weather Stations Pressure Air Temp Water Temp Dewpoint Dewpoint Depression Visibility Wind Speed Wind Dir Waves Ship Positions

OOCL Taipei

Last reported at 2017-Dec-13 19:48 UTC. Time now 2017-Dec-17 02:34 UTC.
Position N 35°02' W 127°45'.

Length 335 m; draft 11.2 m.

Type: Cargo ship. MMSI: 477067800.

Date/timePositionNaut miles runAvg speedWind from/ knotsBaromVisibWave heightAir tempDewpointWater temp
2017-Dec-13 19:48N 35°02' W 127°45'6820.9
2017-Dec-13 16:34N 34°41' W 126°27'120.5
2017-Dec-13 16:31N 34°41' W 126°26'1020.9
2017-Dec-13 16:01N 34°38' W 126°13'1020.6
2017-Dec-13 15:31N 34°35' W 126°01'1020.6
2017-Dec-13 15:00N 34°32' W 125°49'1020.5
2017-Dec-13 14:31N 34°29' W 125°37'1019.9
2017-Dec-13 14:00N 34°27' W 125°26'917.5
2017-Dec-13 13:30N 34°26' W 125°15'917.6
2017-Dec-13 13:01N 34°26' W 125°04'917.5
2017-Dec-13 12:30N 34°26' W 124°54'917.3
2017-Dec-13 12:01N 34°26' W 124°43'917.5
2017-Dec-13 11:31N 34°27' W 124°33'917.3
2017-Dec-13 11:01N 34°27' W 124°22'816.8
2017-Dec-13 10:31N 34°27' W 124°12'815.6
2017-Dec-13 10:01N 34°26' W 124°03'815.6
2017-Dec-13 09:30N 34°26' W 123°53'815.2
2017-Dec-13 09:01N 34°26' W 123°44'815.3
2017-Dec-13 08:31N 34°26' W 123°35'815.5
2017-Dec-13 08:01N 34°26' W 123°25'815.6
2017-Dec-13 07:30N 34°26' W 123°16'815.2
2017-Dec-13 07:00N 34°26' W 123°06'815.3
2017-Dec-13 06:31N 34°26' W 122°57'815.2
2017-Dec-13 06:01N 34°26' W 122°48'815.2
2017-Dec-13 05:31N 34°26' W 122°39'815.4
2017-Dec-13 05:01N 34°25' W 122°29'815.4
2017-Dec-13 04:31N 34°26' W 122°20'815.3
2017-Dec-13 04:00N 34°26' W 122°11'815.4
2017-Dec-13 03:31N 34°26' W 122°01'815.1
2017-Dec-13 03:01N 34°26' W 121°52'815.5
2017-Dec-13 02:31N 34°26' W 121°43'815.3
2017-Dec-13 02:01N 34°26' W 121°34'815.3
2017-Dec-13 01:31N 34°26' W 121°24'714.9
2017-Dec-13 01:01N 34°26' W 121°15'815.2
2017-Dec-13 00:31N 34°26' W 121°06'713.4
2017-Dec-13 00:00N 34°26' W 120°58'713.3
2017-Dec-12 23:30N 34°25' W 120°50'713.3
2017-Dec-12 23:00N 34°24' W 120°42'713.2
2017-Dec-12 22:30N 34°22' W 120°34'713.2
2017-Dec-12 21:59N 34°20' W 120°26'713.4
2017-Dec-12 21:30N 34°19' W 120°19'813.7
2017-Dec-12 20:54N 34°16' W 120°09'613.5
2017-Dec-12 20:29N 34°15' W 120°03'713.6
2017-Dec-12 19:59N 34°13' W 119°55'713.8
2017-Dec-12 19:27N 34°11' W 119°46'713.9
2017-Dec-12 18:58N 34°09' W 119°38'714.0
2017-Dec-12 18:27N 34°08' W 119°30'614.0
2017-Dec-12 18:00N 34°06' W 119°23'714.1
2017-Dec-12 17:30N 34°04' W 119°14'713.8
2017-Dec-12 16:59N 34°00' W 119°07'612.3
2017-Dec-12 16:30N 33°57' W 119°01'510.9
2017-Dec-12 16:00N 33°55' W 118°55'510.8
2017-Dec-12 15:31N 33°52' W 118°49'611.0
2017-Dec-12 14:59N 33°49' W 118°43'510.9
2017-Dec-12 14:29N 33°46' W 118°38'510.8
2017-Dec-12 14:00N 33°44' W 118°32'510.8
2017-Dec-12 13:30N 33°41' W 118°27'510.6
2017-Dec-12 13:01N 33°38' W 118°21'510.8
2017-Dec-12 12:31N 33°38' W 118°15'5 9.2
2017-Dec-12 12:00N 33°42' W 118°11'4 7.2
2017-Dec-12 11:30N 33°45' W 118°13'1 0.4
2017-Dec-12 10:01N 33°45' W 118°13'0 0.0
2017-Dec-12 09:43N 33°45' W 118°13'0 0.0
2017-Dec-11 19:07N 33°45' W 118°13'0 0.0
2017-Dec-11 18:55N 33°45' W 118°13'0 0.0
2017-Dec-11 16:55N 33°45' W 118°13'0 0.0
2017-Dec-10 00:37N 33°45' W 118°13'0 0.0
2017-Dec-09 18:55N 33°45' W 118°13'0 0.0
2017-Dec-09 18:25N 33°45' W 118°13'0 0.0
2017-Dec-09 17:31N 33°45' W 118°13'0 0.0
2017-Dec-09 17:13N 33°45' W 118°13'0 0.0
2017-Dec-09 13:49N 33°45' W 118°13'0 0.0
2017-Dec-09 13:19N 33°45' W 118°13'0 0.0
2017-Dec-09 12:55N 33°45' W 118°13'0 0.0
2017-Dec-09 12:25N 33°45' W 118°13'0 0.0
2017-Dec-09 11:55N 33°45' W 118°13'0 0.0
2017-Dec-09 11:25N 33°45' W 118°13'0 0.0
2017-Dec-09 10:55N 33°45' W 118°13'0 0.0
2017-Dec-09 10:25N 33°45' W 118°13'0 0.0
2017-Dec-09 09:55N 33°45' W 118°13'0 0.0
2017-Dec-09 09:25N 33°45' W 118°13'0 0.0
2017-Dec-09 08:55N 33°45' W 118°13'0 0.0
2017-Dec-09 08:25N 33°45' W 118°13'0 0.0
2017-Dec-09 07:55N 33°45' W 118°13'0 0.0
2017-Dec-09 07:25N 33°45' W 118°13'0 0.0
2017-Dec-09 06:55N 33°45' W 118°13'0 0.0
2017-Dec-09 06:25N 33°45' W 118°13'0 0.0
2017-Dec-09 05:55N 33°45' W 118°13'  
2017-Dec-06 23:03N 33°39' W 118°11'0 9.4
2017-Dec-06 23:00N 33°38' W 118°11'5 8.3
2017-Dec-06 22:26N 33°35' W 118°15'4 8.9
2017-Dec-06 21:58N 33°35' W 118°20'4 8.6
2017-Dec-06 21:30N 33°36' W 118°25'4 8.6
2017-Dec-06 21:00N 33°37' W 118°30'  
Track history (hours):
 
Tides and Currents Weather Stations Pressure Air Temp Water Temp Dewpoint Dewpoint Depression Visibility Wind Speed Wind Dir Waves Ship Positions

OOCL Taipei

Last reported at 2017-Dec-13 19:48 UTC. Time now 2017-Dec-17 02:34 UTC.
Position N 35°02' W 127°45'.

Length 335 m; draft 11.2 m.

Type: Cargo ship. MMSI: 477067800.

Date/timePositionNaut miles runAvg speedWind from/ knotsBaromVisibWave heightAir tempDewpointWater temp
2017-Dec-13 19:48N 35°02' W 127°45'6820.9
2017-Dec-13 16:34N 34°41' W 126°27'120.5
2017-Dec-13 16:31N 34°41' W 126°26'1020.9
2017-Dec-13 16:01N 34°38' W 126°13'1020.6
2017-Dec-13 15:31N 34°35' W 126°01'1020.6
2017-Dec-13 15:00N 34°32' W 125°49'1020.5
2017-Dec-13 14:31N 34°29' W 125°37'1019.9
2017-Dec-13 14:00N 34°27' W 125°26'917.5
2017-Dec-13 13:30N 34°26' W 125°15'917.6
2017-Dec-13 13:01N 34°26' W 125°04'917.5
2017-Dec-13 12:30N 34°26' W 124°54'917.3
2017-Dec-13 12:01N 34°26' W 124°43'917.5
2017-Dec-13 11:31N 34°27' W 124°33'917.3
2017-Dec-13 11:01N 34°27' W 124°22'816.8
2017-Dec-13 10:31N 34°27' W 124°12'815.6
2017-Dec-13 10:01N 34°26' W 124°03'815.6
2017-Dec-13 09:30N 34°26' W 123°53'815.2
2017-Dec-13 09:01N 34°26' W 123°44'815.3
2017-Dec-13 08:31N 34°26' W 123°35'815.5
2017-Dec-13 08:01N 34°26' W 123°25'815.6
2017-Dec-13 07:30N 34°26' W 123°16'815.2
2017-Dec-13 07:00N 34°26' W 123°06'815.3
2017-Dec-13 06:31N 34°26' W 122°57'815.2
2017-Dec-13 06:01N 34°26' W 122°48'815.2
2017-Dec-13 05:31N 34°26' W 122°39'815.4
2017-Dec-13 05:01N 34°25' W 122°29'815.4
2017-Dec-13 04:31N 34°26' W 122°20'815.3
2017-Dec-13 04:00N 34°26' W 122°11'815.4
2017-Dec-13 03:31N 34°26' W 122°01'815.1
2017-Dec-13 03:01N 34°26' W 121°52'815.5
2017-Dec-13 02:31N 34°26' W 121°43'815.3
2017-Dec-13 02:01N 34°26' W 121°34'815.3
2017-Dec-13 01:31N 34°26' W 121°24'714.9
2017-Dec-13 01:01N 34°26' W 121°15'815.2
2017-Dec-13 00:31N 34°26' W 121°06'713.4
2017-Dec-13 00:00N 34°26' W 120°58'713.3
2017-Dec-12 23:30N 34°25' W 120°50'713.3
2017-Dec-12 23:00N 34°24' W 120°42'713.2
2017-Dec-12 22:30N 34°22' W 120°34'713.2
2017-Dec-12 21:59N 34°20' W 120°26'713.4
2017-Dec-12 21:30N 34°19' W 120°19'813.7
2017-Dec-12 20:54N 34°16' W 120°09'613.5
2017-Dec-12 20:29N 34°15' W 120°03'713.6
2017-Dec-12 19:59N 34°13' W 119°55'713.8
2017-Dec-12 19:27N 34°11' W 119°46'713.9
2017-Dec-12 18:58N 34°09' W 119°38'714.0
2017-Dec-12 18:27N 34°08' W 119°30'614.0
2017-Dec-12 18:00N 34°06' W 119°23'714.1
2017-Dec-12 17:30N 34°04' W 119°14'713.8
2017-Dec-12 16:59N 34°00' W 119°07'612.3
2017-Dec-12 16:30N 33°57' W 119°01'510.9
2017-Dec-12 16:00N 33°55' W 118°55'510.8
2017-Dec-12 15:31N 33°52' W 118°49'611.0
2017-Dec-12 14:59N 33°49' W 118°43'510.9
2017-Dec-12 14:29N 33°46' W 118°38'510.8
2017-Dec-12 14:00N 33°44' W 118°32'510.8
2017-Dec-12 13:30N 33°41' W 118°27'510.6
2017-Dec-12 13:01N 33°38' W 118°21'510.8
2017-Dec-12 12:31N 33°38' W 118°15'5 9.2
2017-Dec-12 12:00N 33°42' W 118°11'4 7.2
2017-Dec-12 11:30N 33°45' W 118°13'1 0.4
2017-Dec-12 10:01N 33°45' W 118°13'0 0.0
2017-Dec-12 09:43N 33°45' W 118°13'0 0.0
2017-Dec-11 19:07N 33°45' W 118°13'0 0.0
2017-Dec-11 18:55N 33°45' W 118°13'0 0.0
2017-Dec-11 16:55N 33°45' W 118°13'0 0.0
2017-Dec-10 00:37N 33°45' W 118°13'0 0.0
2017-Dec-09 18:55N 33°45' W 118°13'0 0.0
2017-Dec-09 18:25N 33°45' W 118°13'0 0.0
2017-Dec-09 17:31N 33°45' W 118°13'0 0.0
2017-Dec-09 17:13N 33°45' W 118°13'0 0.0
2017-Dec-09 13:49N 33°45' W 118°13'0 0.0
2017-Dec-09 13:19N 33°45' W 118°13'0 0.0
2017-Dec-09 12:55N 33°45' W 118°13'0 0.0
2017-Dec-09 12:25N 33°45' W 118°13'0 0.0
2017-Dec-09 11:55N 33°45' W 118°13'0 0.0
2017-Dec-09 11:25N 33°45' W 118°13'0 0.0
2017-Dec-09 10:55N 33°45' W 118°13'0 0.0
2017-Dec-09 10:25N 33°45' W 118°13'0 0.0
2017-Dec-09 09:55N 33°45' W 118°13'0 0.0
2017-Dec-09 09:25N 33°45' W 118°13'0 0.0
2017-Dec-09 08:55N 33°45' W 118°13'0 0.0
2017-Dec-09 08:25N 33°45' W 118°13'0 0.0
2017-Dec-09 07:55N 33°45' W 118°13'0 0.0
2017-Dec-09 07:25N 33°45' W 118°13'0 0.0
2017-Dec-09 06:55N 33°45' W 118°13'0 0.0
2017-Dec-09 06:25N 33°45' W 118°13'0 0.0
2017-Dec-09 05:55N 33°45' W 118°13'  
2017-Dec-06 23:03N 33°39' W 118°11'0 9.4
2017-Dec-06 23:00N 33°38' W 118°11'5 8.3
2017-Dec-06 22:26N 33°35' W 118°15'4 8.9
2017-Dec-06 21:58N 33°35' W 118°20'4 8.6
2017-Dec-06 21:30N 33°36' W 118°25'4 8.6
2017-Dec-06 21:00N 33°37' W 118°30'  

Dump ship's entire track history